.
WxDataArchive / Data Records for 2010-03-15
2010-03-14 March 2010 2010-03-16

Data Records for Monday, 15 March 2010

Time	Temp	Chill	HIndex	Humid	Dewpt	 Wind 	HiWind	WindDir	Rain 	Barom 
-----	----	-----	------	-----	-----	------	------	-------	-----	----- 
00:00	40.8	40.8	40.8	87	37.2	0	1	0	0.00	29.896 
00:05	40.6	40.6	40.6	88	37.3	0	1	0	0.00	29.896 
00:10	40.6	40.6	40.6	88	37.3	0	2	0	0.00	29.896 
00:15	40.6	40.6	40.6	88	37.3	0	1	0	0.00	29.898 
00:20	40.8	40.8	40.8	88	37.5	0	2	0	0.00	29.898 
00:25	40.6	40.6	40.6	88	37.3	0	2	0	0.00	29.898 
00:30	40.6	40.6	40.6	88	37.3	1	3	22	0.00	29.902 
00:35	40.6	40.6	40.6	88	37.3	0	2	45	0.00	29.902 
00:40	40.6	40.6	40.6	89	37.6	0	3	45	0.00	29.902 
00:45	40.5	40.5	40.5	89	37.5	0	2	315	0.00	29.904 
00:50	40.3	40.3	40.3	89	37.3	0	3	45	0.00	29.904 
00:55	40.3	40.3	40.3	89	37.3	0	2	338	0.00	29.904 
01:00	40.3	40.3	40.3	89	37.3	0	2	338	0.00	29.910 
01:05	40.2	40.2	40.2	89	37.2	0	2	338	0.00	29.910 
01:10	40.2	40.2	40.2	89	37.2	1	3	22	0.00	29.910 
01:15	40.2	40.2	40.2	89	37.2	0	2	22	0.00	29.910 
01:20	40.2	40.2	40.2	89	37.2	0	2	22	0.00	29.910 
01:25	40.2	40.2	40.2	89	37.2	0	3	45	0.00	29.910 
01:30	40.2	40.2	40.2	89	37.2	0	2	45	0.00	29.912 
01:35	40.2	40.2	40.2	88	36.9	0	2	45	0.00	29.912 
01:40	40.2	40.2	40.2	88	36.9	0	2	45	0.00	29.912 
01:45	40.2	40.2	40.2	88	36.9	0	1	45	0.00	29.913 
01:50	40.2	40.2	40.2	88	36.9	0	2	45	0.00	29.913 
01:55	40.2	40.2	40.2	88	36.9	0	1	45	0.00	29.913 
02:00	40.2	40.2	40.2	88	36.9	0	1	45	0.00	29.916 
02:05	40.1	40.1	40.1	88	36.8	0	0	---	0.00	29.916 
02:10	40.1	40.1	40.1	88	36.8	0	0	---	0.00	29.916 
02:15	40.1	40.1	40.1	88	36.8	0	0	---	0.00	29.920 
02:20	40.1	40.1	40.1	88	36.8	0	0	---	0.00	29.920 
02:25	40.1	40.1	40.1	88	36.8	0	0	---	0.00	29.920 
02:30	40.1	40.1	40.1	88	36.8	0	1	338	0.00	29.925 
02:35	40.1	40.1	40.1	88	36.8	1	4	22	0.00	29.925 
02:40	40.1	40.1	40.1	88	36.8	1	4	0	0.00	29.925 
02:45	39.9	39.9	39.9	88	36.6	0	2	22	0.00	29.925 
02:50	39.9	39.9	39.9	88	36.6	1	2	45	0.00	29.925 
02:55	39.9	39.9	39.9	88	36.6	0	1	338	0.00	29.925 
03:00	39.8	39.8	39.8	88	36.5	0	0	---	0.00	29.928 
03:05	39.6	39.6	39.6	88	36.3	0	0	---	0.00	29.928 
03:10	39.6	39.6	39.6	88	36.3	0	1	338	0.00	29.928 
03:15	39.6	39.6	39.6	89	36.6	0	1	338	0.00	29.938 
03:20	39.8	39.8	39.8	89	36.8	0	3	338	0.00	29.938 
03:25	39.8	39.8	39.8	89	36.8	0	2	338	0.00	29.938 
03:30	39.8	39.8	39.8	89	36.8	0	1	338	0.00	29.937 
03:35	39.8	39.8	39.8	89	36.8	0	2	338	0.00	29.937 
03:40	39.8	39.8	39.8	89	36.8	0	2	338	0.00	29.937 
03:45	39.8	39.8	39.8	89	36.8	0	1	0	0.00	29.928 
03:50	39.8	39.8	39.8	89	36.8	0	3	0	0.00	29.928 
03:55	39.8	39.8	39.8	89	36.8	0	2	0	0.00	29.928 
04:00	39.9	39.9	39.9	89	36.9	0	3	45	0.00	29.929 
04:05	39.9	39.9	39.9	90	37.2	0	3	112	0.00	29.929 
04:10	39.9	39.9	39.9	89	36.9	0	2	315	0.00	29.929 
04:15	39.9	39.9	39.9	89	36.9	0	4	45	0.00	29.929 
04:20	39.9	39.9	39.9	89	36.9	0	2	22	0.00	29.929 
04:25	39.9	39.9	39.9	89	36.9	0	3	112	0.00	29.929 
04:30	39.9	39.9	39.9	89	36.9	0	1	112	0.00	29.930 
04:35	39.9	39.9	39.9	89	36.9	0	1	112	0.00	29.930 
04:40	39.8	39.8	39.8	89	36.8	0	1	112	0.00	29.930 
04:45	39.8	39.8	39.8	90	37.1	0	2	112	0.00	29.928 
04:50	39.9	39.9	39.9	90	37.2	0	1	0	0.00	29.928 
04:55	39.8	39.8	39.8	89	36.8	0	1	0	0.00	29.928 
05:00	39.8	39.8	39.8	89	36.8	0	2	0	0.00	29.927 
05:05	39.6	39.6	39.6	89	36.6	0	2	315	0.00	29.927 
05:10	39.6	39.6	39.6	89	36.6	0	1	315	0.00	29.927 
05:15	39.5	39.5	39.5	89	36.5	0	2	315	0.00	29.938 
05:20	39.5	39.5	39.5	89	36.5	0	2	315	0.00	29.938 
05:25	39.3	39.3	39.3	90	36.6	0	2	315	0.00	29.938 
05:30	39.1	39.1	39.1	89	36.1	0	3	315	0.00	29.941 
05:35	38.9	38.9	38.9	90	36.2	0	2	315	0.00	29.941 
05:40	38.8	38.8	38.8	90	36.1	0	1	315	0.00	29.941 
05:45	38.6	38.6	38.6	90	35.9	0	1	315	0.00	29.950 
05:50	38.5	38.5	38.5	90	35.8	0	2	315	0.00	29.950 
05:55	38.5	38.5	38.5	90	35.8	0	3	315	0.00	29.950 
06:00	38.3	38.3	38.3	90	35.6	0	3	315	0.00	29.960 
06:05	38.3	38.3	38.3	90	35.6	0	1	315	0.00	29.960 
06:10	38.0	38.0	38.0	90	35.3	0	1	315	0.00	29.960 
06:15	38.0	38.0	38.0	90	35.3	0	2	315	0.00	29.962 
06:20	37.9	37.9	37.9	90	35.2	0	2	315	0.00	29.962 
06:25	37.8	37.8	37.8	91	35.4	0	1	315	0.00	29.962 
06:30	37.8	37.8	37.8	91	35.4	0	0	---	0.00	29.965 
06:35	37.6	37.6	37.6	91	35.2	0	1	315	0.00	29.965 
06:40	37.6	37.6	37.6	91	35.2	0	1	315	0.00	29.965 
06:45	37.5	37.5	37.5	91	35.1	0	1	315	0.00	29.969 
06:50	37.5	37.5	37.5	91	35.1	0	1	315	0.00	29.969 
06:55	37.5	37.5	37.5	91	35.1	0	1	315	0.00	29.969 
07:00	37.6	37.6	37.6	91	35.2	0	1	315	0.00	29.976 
07:05	37.8	37.8	37.8	92	35.7	0	1	315	0.00	29.976 
07:10	37.9	37.9	37.9	92	35.8	0	1	315	0.00	29.976 
07:15	38.0	38.0	38.0	92	35.9	0	1	315	0.00	29.979 
07:20	38.2	38.2	38.2	92	36.1	0	1	315	0.00	29.979 
07:25	38.2	38.2	38.2	91	35.8	0	1	315	0.00	29.979 
07:30	38.3	38.3	38.3	91	35.9	0	1	315	0.00	29.992 
07:35	38.3	38.3	38.3	91	35.9	0	0	---	0.00	29.992 
07:40	38.5	38.5	38.5	91	36.1	0	2	315	0.00	29.992 
07:45	38.5	38.5	38.5	91	36.1	0	1	315	0.00	29.994 
07:50	38.6	38.6	38.6	91	36.2	0	2	315	0.00	29.994 
07:55	38.8	38.8	38.8	91	36.4	0	3	315	0.00	29.994 
08:00	38.8	38.8	38.8	91	36.4	0	1	315	0.00	30.001 
08:05	38.9	38.9	38.9	91	36.5	0	2	315	0.00	30.001 
08:10	39.1	39.1	39.1	91	36.7	0	3	315	0.00	30.001 
08:15	39.1	39.1	39.1	91	36.7	0	2	315	0.00	30.007 
08:20	39.2	39.2	39.2	91	36.8	0	3	315	0.00	30.007 
08:25	39.3	39.3	39.3	91	36.9	0	1	22	0.00	30.007 
08:30	39.3	39.3	39.3	91	36.9	0	3	338	0.00	30.008 
08:35	39.5	39.5	39.5	91	37.1	0	1	338	0.00	30.008 
08:40	39.5	39.5	39.5	90	36.8	0	2	22	0.00	30.008 
08:45	39.6	39.6	39.6	90	36.9	0	3	315	0.00	30.011 
08:50	39.6	39.6	39.6	90	36.9	0	3	22	0.00	30.011 
08:55	39.8	39.8	39.8	90	37.1	0	2	45	0.00	30.011 
09:00	39.8	39.8	39.8	90	37.1	0	2	22	0.00	30.023 
09:05	39.9	39.9	39.9	90	37.2	0	3	22	0.00	30.023 
09:10	39.9	39.9	39.9	89	36.9	0	3	248	0.00	30.023 
09:15	40.1	40.1	40.1	89	37.1	0	3	338	0.00	30.027 
09:20	40.1	40.1	40.1	89	37.1	1	3	315	0.00	30.027 
09:25	40.2	40.2	40.2	89	37.2	0	2	0	0.00	30.027 
09:30	40.2	40.2	40.2	89	37.2	0	3	0	0.00	30.027 
09:35	40.2	40.2	40.2	89	37.2	0	3	22	0.00	30.027 
09:40	40.3	40.3	40.3	89	37.3	0	2	22	0.00	30.027 
09:45	40.5	40.5	40.5	89	37.5	0	3	45	0.00	30.032 
09:50	40.6	40.6	40.6	89	37.6	0	2	45	0.00	30.032 
09:55	40.6	40.6	40.6	89	37.6	0	2	0	0.00	30.032 
10:00	40.8	40.8	40.8	89	37.8	0	2	0	0.00	30.035 
10:05	40.9	40.9	40.9	89	37.9	0	2	0	0.00	30.035 
10:10	40.9	40.9	40.9	88	37.6	1	3	292	0.00	30.035 
10:15	41.1	41.1	41.1	88	37.8	1	5	270	0.00	30.036 
10:20	41.1	41.1	41.1	88	37.8	1	4	338	0.00	30.036 
10:25	41.1	41.1	41.1	88	37.8	0	2	270	0.00	30.036 
10:30	41.2	41.2	41.2	88	37.9	1	3	315	0.00	30.036 
10:35	41.5	41.5	41.5	88	38.2	1	4	270	0.00	30.036 
10:40	41.6	41.6	41.6	88	38.3	1	3	338	0.00	30.036 
10:45	41.8	41.8	41.8	88	38.5	0	3	22	0.00	30.037 
10:50	41.9	41.9	41.9	87	38.3	1	3	338	0.00	30.037 
10:55	42.2	42.2	42.2	87	38.6	1	3	292	0.00	30.037 
11:00	42.2	42.2	42.2	86	38.3	2	5	315	0.00	30.040 
11:05	42.2	42.2	42.2	85	38.0	1	4	0	0.00	30.040 
11:10	42.3	42.3	42.3	85	38.1	2	4	0	0.00	30.040 
11:15	42.5	42.5	42.5	85	38.3	1	4	0	0.00	30.047 
11:20	42.6	42.6	42.6	85	38.4	1	4	0	0.00	30.047 
11:25	42.8	42.8	42.8	85	38.6	1	3	22	0.00	30.047 
11:30	43.2	43.2	43.2	84	38.7	1	3	0	0.00	30.050 
11:35	43.2	43.2	43.2	83	38.4	1	6	0	0.00	30.050 
11:40	43.2	43.2	43.2	84	38.7	1	3	22	0.00	30.050 
11:45	43.2	43.2	43.2	83	38.4	1	5	22	0.00	30.052 
11:50	43.3	43.3	43.3	84	38.8	1	4	248	0.00	30.052 
11:55	43.6	43.6	43.6	84	39.1	1	4	338	0.00	30.052 
12:00	43.9	43.9	43.9	82	38.8	1	4	338	0.00	30.052 
12:05	43.9	43.9	43.9	81	38.5	1	3	22	0.00	30.052 
12:10	43.6	43.6	43.6	81	38.2	1	3	22	0.00	30.052 
12:15	43.3	43.3	43.3	81	37.9	1	4	0	0.00	30.056 
12:20	43.3	43.3	43.3	82	38.2	1	3	0	0.00	30.056 
12:25	43.3	43.3	43.3	83	38.5	0	2	0	0.00	30.056 
12:30	43.5	43.5	43.5	82	38.4	1	4	0	0.00	30.055 
12:35	43.5	43.5	43.5	82	38.4	1	4	22	0.00	30.055 
12:40	43.8	43.8	43.8	82	38.7	1	4	22	0.00	30.055 
12:45	43.9	43.9	43.9	82	38.8	1	4	22	0.00	30.057 
12:50	44.1	44.1	44.1	82	39.0	1	3	315	0.00	30.057 
12:55	44.2	44.2	44.2	82	39.1	1	2	315	0.00	30.057 
13:00	44.5	44.5	44.5	82	39.4	1	4	315	0.00	30.055 
13:05	44.8	44.8	44.8	81	39.3	1	3	90	0.00	30.055 
13:10	45.1	45.1	45.1	80	39.3	1	3	0	0.00	30.055 
13:15	45.2	45.2	45.2	79	39.1	1	3	338	0.00	30.058 
13:20	45.4	45.4	45.4	79	39.3	1	4	90	0.00	30.058 
13:25	45.5	45.5	45.5	78	39.0	1	3	90	0.00	30.058 
13:30	45.4	45.4	45.4	78	38.9	1	3	22	0.00	30.059 
13:35	45.5	45.5	45.5	78	39.0	1	3	22	0.00	30.059 
13:40	45.8	45.8	45.8	77	39.0	1	5	22	0.00	30.059 
13:45	46.4	46.4	46.4	76	39.3	1	4	22	0.00	30.060 
13:50	46.4	46.4	46.4	75	38.9	1	3	0	0.00	30.060 
13:55	46.2	46.2	46.2	75	38.7	1	4	0	0.00	30.060 
14:00	46.4	46.4	46.4	75	38.9	1	2	0	0.00	30.059 
14:05	46.5	46.5	46.5	75	39.0	0	2	0	0.00	30.059 
14:10	46.4	46.4	46.4	75	38.9	0	4	225	0.00	30.059 
14:15	46.2	46.2	46.2	74	38.4	1	4	45	0.00	30.056 
14:20	46.1	46.1	46.1	74	38.3	1	7	90	0.00	30.056 
14:25	46.0	46.0	46.0	75	38.5	1	3	0	0.00	30.056 
14:30	45.8	45.8	45.8	75	38.3	1	3	22	0.00	30.057 
14:35	45.7	45.7	45.7	76	38.6	1	4	68	0.00	30.057 
14:40	45.7	45.7	45.7	76	38.6	0	2	225	0.00	30.057 
14:45	45.8	45.8	45.8	75	38.3	1	5	68	0.00	30.057 
14:50	45.7	45.7	45.7	76	38.6	1	6	45	0.00	30.057 
14:55	45.5	45.5	45.5	76	38.4	1	3	45	0.00	30.057 
15:00	45.5	45.5	45.5	77	38.7	1	5	338	0.00	30.060 
15:05	45.4	45.4	45.4	77	38.6	1	3	45	0.00	30.060 
15:10	45.5	45.5	45.5	77	38.7	1	3	45	0.00	30.060 
15:15	45.8	45.8	45.8	76	38.7	0	2	0	0.00	30.061 
15:20	46.1	46.1	46.1	75	38.6	0	3	68	0.00	30.061 
15:25	46.2	46.2	46.2	74	38.4	1	4	135	0.00	30.061 
15:30	46.2	46.2	46.2	75	38.7	1	3	0	0.00	30.059 
15:35	46.2	46.2	46.2	76	39.1	0	2	45	0.00	30.059 
15:40	46.2	46.2	46.2	75	38.7	1	2	45	0.00	30.059 
15:45	46.2	46.2	46.2	75	38.7	0	2	0	0.00	30.060 
15:50	46.4	46.4	46.4	75	38.9	0	2	0	0.00	30.060 
15:55	46.4	46.4	46.4	75	38.9	0	2	338	0.00	30.060 
16:00	46.5	46.5	46.5	75	39.0	1	4	270	0.00	30.058 
16:05	46.5	46.5	46.5	74	38.7	1	3	22	0.00	30.058 
16:10	46.8	46.8	46.8	74	39.0	0	2	22	0.00	30.058 
16:15	47.0	47.0	47.0	73	38.8	0	3	22	0.00	30.057 
16:20	47.1	47.1	47.1	73	38.9	1	3	22	0.00	30.057 
16:25	47.3	47.3	47.3	73	39.1	1	3	112	0.00	30.057 
16:30	47.3	47.3	47.3	73	39.1	0	3	0	0.00	30.059 
16:35	47.3	47.3	47.3	74	39.4	0	2	22	0.00	30.059 
16:40	47.0	47.0	47.0	73	38.8	1	5	22	0.00	30.059 
16:45	47.0	47.0	47.0	73	38.8	0	3	292	0.00	30.060 
16:50	47.0	47.0	47.0	74	39.1	1	3	315	0.00	30.060 
16:55	47.1	47.1	47.1	74	39.2	0	3	315	0.00	30.060 
17:00	47.3	47.3	47.3	73	39.1	0	2	0	0.00	30.062 
17:05	47.3	47.3	47.3	74	39.4	0	2	0	0.00	30.062 
17:10	47.3	47.3	47.3	73	39.1	0	2	0	0.00	30.062 
17:15	47.3	47.3	47.3	73	39.1	1	3	338	0.00	30.066 
17:20	47.4	47.4	47.4	74	39.5	0	3	22	0.00	30.066 
17:25	47.6	47.6	47.6	73	39.4	0	3	22	0.00	30.066 
17:30	47.6	47.6	47.6	73	39.4	0	2	0	0.00	30.066 
17:35	47.6	47.6	47.6	73	39.4	1	5	270	0.00	30.066 
17:40	47.3	47.3	47.3	73	39.1	1	3	0	0.00	30.066 
17:45	47.3	47.3	47.3	73	39.1	1	2	0	0.00	30.071 
17:50	47.3	47.3	47.3	73	39.1	1	4	338	0.00	30.071 
17:55	47.3	47.3	47.3	74	39.4	1	4	270	0.00	30.071 
18:00	47.3	47.3	47.3	73	39.1	1	3	22	0.00	30.078 
18:05	47.4	47.4	47.4	73	39.2	0	2	0	0.00	30.078 
18:10	47.4	47.4	47.4	73	39.2	1	2	0	0.00	30.078 
18:15	47.6	47.6	47.6	72	39.0	1	4	0	0.00	30.081 
18:20	47.4	47.4	47.4	71	38.5	1	3	22	0.00	30.081 
18:25	47.4	47.4	47.4	71	38.5	1	2	315	0.00	30.081 
18:30	47.4	47.4	47.4	72	38.8	0	3	0	0.00	30.083 
18:35	47.4	47.4	47.4	72	38.8	1	3	0	0.00	30.083 
18:40	47.4	47.4	47.4	73	39.2	1	2	315	0.00	30.083 
18:45	47.4	47.4	47.4	73	39.2	1	4	315	0.00	30.084 
18:50	47.3	47.3	47.3	73	39.1	1	4	270	0.00	30.084 
18:55	47.3	47.3	47.3	74	39.4	1	4	270	0.00	30.084 
19:00	47.3	47.3	47.3	74	39.4	0	2	315	0.00	30.090 
19:05	47.3	47.3	47.3	74	39.4	0	2	315	0.00	30.090 
19:10	47.3	47.3	47.3	75	39.8	0	1	315	0.00	30.090 
19:15	47.1	47.1	47.1	74	39.2	0	3	315	0.00	30.095 
19:20	47.1	47.1	47.1	74	39.2	0	3	315	0.00	30.095 
19:25	47.1	47.1	47.1	74	39.2	0	2	315	0.00	30.095 
19:30	47.1	47.1	47.1	75	39.6	0	2	315	0.00	30.100 
19:35	47.0	47.0	47.0	75	39.5	0	3	315	0.00	30.100 
19:40	47.0	47.0	47.0	75	39.5	0	0	---	0.00	30.100 
19:45	46.8	46.8	46.8	76	39.6	0	2	292	0.00	30.111 
19:50	46.8	46.8	46.8	76	39.6	0	2	315	0.00	30.111 
19:55	46.5	46.5	46.5	76	39.3	0	1	315	0.00	30.111 
20:00	46.4	46.4	46.4	76	39.3	0	3	315	0.00	30.112 
20:05	46.1	46.1	46.1	77	39.3	0	0	---	0.00	30.112 
20:10	45.8	45.8	45.8	77	39.0	0	1	315	0.00	30.112 
20:15	45.5	45.5	45.5	78	39.0	0	1	315	0.00	30.111 
20:20	45.2	45.2	45.2	79	39.1	0	1	315	0.00	30.111 
20:25	45.1	45.1	45.1	79	39.0	0	1	315	0.00	30.111 
20:30	44.9	44.9	44.9	80	39.1	0	1	315	0.00	30.115 
20:35	44.8	44.8	44.8	80	39.0	0	0	---	0.00	30.115 
20:40	44.6	44.6	44.6	80	38.8	0	2	315	0.00	30.115 
20:45	44.5	44.5	44.5	81	39.0	0	2	315	0.00	30.116 
20:50	44.3	44.3	44.3	81	38.8	0	1	315	0.00	30.116 
20:55	44.2	44.2	44.2	81	38.7	0	1	315	0.00	30.116 
21:00	44.1	44.1	44.1	81	38.6	0	1	315	0.00	30.118 
21:05	43.9	43.9	43.9	82	38.8	0	0	---	0.00	30.118 
21:10	43.8	43.8	43.8	82	38.7	0	1	315	0.00	30.118 
21:15	43.8	43.8	43.8	83	39.0	0	1	315	0.00	30.127 
21:20	43.6	43.6	43.6	83	38.8	0	2	315	0.00	30.127 
21:25	43.6	43.6	43.6	83	38.8	0	1	315	0.00	30.127 
21:30	43.6	43.6	43.6	83	38.8	0	1	315	0.00	30.130 
21:35	43.5	43.5	43.5	83	38.7	0	1	315	0.00	30.130 
21:40	43.3	43.3	43.3	84	38.8	0	1	315	0.00	30.130 
21:45	43.2	43.2	43.2	84	38.7	0	3	248	0.00	30.131 
21:50	43.1	43.1	43.1	84	38.6	0	1	248	0.00	30.131 
21:55	43.1	43.1	43.1	84	38.6	0	1	248	0.00	30.131 
22:00	42.9	42.9	42.9	84	38.4	0	1	248	0.00	30.131 
22:05	42.8	42.8	42.8	85	38.6	0	2	248	0.00	30.131 
22:10	42.8	42.8	42.8	85	38.6	0	2	248	0.00	30.131 
22:15	42.9	42.9	42.9	85	38.7	0	1	248	0.00	30.133 
22:20	42.8	42.8	42.8	85	38.6	0	4	315	0.00	30.133 
22:25	42.8	42.8	42.8	85	38.6	0	2	315	0.00	30.133 
22:30	42.6	42.6	42.6	86	38.7	0	2	315	0.00	30.137 
22:35	42.6	42.6	42.6	86	38.7	0	2	315	0.00	30.137 
22:40	42.5	42.5	42.5	86	38.6	0	1	315	0.00	30.137 
22:45	42.3	42.3	42.3	86	38.4	0	3	315	0.00	30.135 
22:50	42.2	42.2	42.2	86	38.3	0	3	292	0.00	30.135 
22:55	42.2	42.2	42.2	87	38.6	1	4	292	0.00	30.135 
23:00	42.1	42.1	42.1	87	38.5	0	2	338	0.00	30.137 
23:05	41.9	41.9	41.9	87	38.3	1	2	338	0.00	30.137 
23:10	41.9	41.9	41.9	87	38.3	1	3	338	0.00	30.137 
23:15	41.8	41.8	41.8	87	38.2	1	3	0	0.00	30.138 
23:20	41.6	41.6	41.6	88	38.3	1	2	338	0.00	30.138 
23:25	41.5	41.5	41.5	88	38.2	0	2	338	0.00	30.138 
23:30	41.3	41.3	41.3	88	38.0	0	2	338	0.00	30.138 
23:35	41.3	41.3	41.3	88	38.0	0	3	338	0.00	30.138 
23:40	41.2	41.2	41.2	88	37.9	0	2	270	0.00	30.138 
23:45	41.1	41.1	41.1	88	37.8	0	2	270	0.00	30.144 
23:50	40.9	40.9	40.9	88	37.6	0	3	270	0.00	30.144 
23:55	40.8	40.8	40.8	88	37.5	0	1	270	0.00	30.144 

CoCoRaHS
IN-AL-39
A2 Web Hosting
Creative Commons License
GoDaddy
search engine by freefind advanced

loaded 2018-11-15 05:05:04 • last modified 2010-11-18 10:43:29
Privacy PolicyDisclaimer
• wx.awcolley.com is powered by PmWiki v.2002016 •
• all content (unless otherwise noted) © 2018 A W Colley